createdAt,value
2018-04-11T00:00:11.616Z,94872.16
2018-04-11T00:02:39.956Z,94868.86
2018-04-11T00:05:09.237Z,94872.75
2018-04-11T00:07:37.596Z,94864.79
2018-04-11T00:10:05.942Z,94876.41
2018-04-11T00:12:34.309Z,94869.72
2018-04-11T00:15:02.671Z,94868.88
2018-04-11T00:17:31.976Z,94871.32
2018-04-11T00:20:00.322Z,94870.63
2018-04-11T00:22:28.649Z,94872.45
2018-04-11T00:24:57.021Z,94872.17
2018-04-11T00:27:25.346Z,94873.08
2018-04-11T00:29:53.765Z,94884.11
2018-04-11T00:32:22.143Z,94883.27
2018-04-11T00:34:50.480Z,94881.41
2018-04-11T00:37:18.818Z,94881.53
2018-04-11T00:39:47.165Z,94885.42
2018-04-11T00:42:15.486Z,94894.77
2018-04-11T00:44:43.837Z,94882.69
2018-04-11T00:47:12.161Z,94889.83
2018-04-11T00:49:41.505Z,94883.14
2018-04-11T00:52:09.838Z,94886.48
2018-04-11T00:54:38.261Z,94891.09
2018-04-11T00:57:06.592Z,94890.05
2018-04-11T00:59:34.931Z,94891.05
2018-04-11T01:02:03.249Z,94883.05
2018-04-11T01:04:31.696Z,94889.63
2018-04-11T01:07:00.030Z,94890.16
2018-04-11T01:09:28.368Z,94894.34
2018-04-11T01:11:56.708Z,94890.19
2018-04-11T01:14:25.081Z,94890.41
2018-04-11T01:16:53.485Z,94890.48
2018-04-11T01:19:21.816Z,94891.55
2018-04-11T01:21:50.184Z,94890.77
2018-04-11T01:24:18.508Z,94893.13
2018-04-11T01:26:46.868Z,94890.16
2018-04-11T01:29:15.260Z,94899.59
2018-04-11T01:31:43.604Z,94909.04
2018-04-11T01:34:11.926Z,94902.60
2018-04-11T01:36:40.280Z,94911.08
2018-04-11T01:39:08.605Z,94907.41
2018-04-11T01:41:36.956Z,94903.30
2018-04-11T01:44:05.276Z,94898.07
2018-04-11T01:46:34.604Z,94894.23
2018-04-11T01:49:02.938Z,94899.08
2018-04-11T01:51:31.286Z,94901.20
2018-04-11T01:53:59.616Z,94902.37
2018-04-11T01:56:27.967Z,94900.30
2018-04-11T01:58:56.313Z,94899.05
2018-04-11T02:01:24.689Z,94897.34
2018-04-11T02:03:53.022Z,94896.94
2018-04-11T02:06:21.350Z,94892.73
2018-04-11T02:08:49.694Z,94898.30
2018-04-11T02:11:18.033Z,94898.08
2018-04-11T02:13:46.479Z,94901.19
2018-04-11T02:16:14.796Z,94898.16
2018-04-11T02:18:43.240Z,94904.19
2018-04-11T02:21:12.228Z,94902.09
2018-04-11T02:23:40.599Z,94897.48
2018-04-11T02:26:08.991Z,94898.30
2018-04-11T02:28:37.335Z,94912.80
2018-04-11T02:31:05.670Z,94912.73
2018-04-11T02:33:34.014Z,94913.84
2018-04-11T02:36:02.354Z,94919.91
2018-04-11T02:38:30.770Z,94916.63
2018-04-11T02:40:59.096Z,94914.77
2018-04-11T02:43:27.529Z,94911.19
2018-04-11T02:45:55.857Z,94916.58
2018-04-11T02:48:24.201Z,94911.19
2018-04-11T02:50:52.521Z,94909.52
2018-04-11T02:53:20.889Z,94912.23
2018-04-11T02:55:49.209Z,94910.19
2018-04-11T02:58:17.535Z,94920.38
2018-04-11T03:00:45.881Z,94918.28
2018-04-11T03:03:14.241Z,94920.10
2018-04-11T03:05:42.589Z,94930.05
2018-04-11T03:08:10.897Z,94921.41
2018-04-11T03:10:39.259Z,94925.33
2018-04-11T03:13:07.566Z,94918.52
2018-04-11T03:15:35.930Z,94914.11
2018-04-11T03:18:04.261Z,94898.45
2018-04-11T03:20:32.687Z,94904.59
2018-04-11T03:23:01.017Z,94904.09
2018-04-11T03:25:29.458Z,94899.52
2018-04-11T03:27:57.796Z,94900.02
2018-04-11T03:30:26.137Z,94886.37
2018-04-11T03:32:54.588Z,94878.34
2018-04-11T03:35:22.929Z,94871.17
2018-04-11T03:37:51.375Z,94865.84
2018-04-11T03:40:19.813Z,94862.66
2018-04-11T03:42:48.165Z,94868.98
2018-04-11T03:45:16.469Z,94866.95
2018-04-11T03:47:44.845Z,94881.73
2018-04-11T03:50:13.237Z,94894.70
2018-04-11T03:52:41.596Z,94908.45
2018-04-11T03:55:09.985Z,94917.21
2018-04-11T03:57:38.338Z,94914.17
2018-04-11T04:00:06.742Z,94919.80
2018-04-11T04:02:35.093Z,94928.50
2018-04-11T04:05:03.497Z,94916.83
2018-04-11T04:07:31.836Z,94912.51
2018-04-11T04:10:00.257Z,94920.31
2018-04-11T04:12:28.603Z,94918.80
2018-04-11T04:15:08.880Z,94922.69
2018-04-11T04:17:49.064Z,94924.83
2018-04-11T04:20:37.983Z,94921.78
2018-04-11T04:23:06.325Z,94922.47
2018-04-11T04:25:34.651Z,94921.73
2018-04-11T04:28:03.957Z,94924.17
2018-04-11T04:30:32.328Z,94924.27
2018-04-11T04:33:00.680Z,94921.17
2018-04-11T04:35:28.999Z,94923.47
2018-04-11T04:37:57.361Z,94927.13
2018-04-11T04:40:25.684Z,94929.05
2018-04-11T04:42:54.125Z,94925.48
2018-04-11T04:45:22.497Z,94931.51
2018-04-11T04:47:50.885Z,94923.98
2018-04-11T04:50:19.200Z,94924.41
2018-04-11T04:52:47.538Z,94921.14
2018-04-11T04:55:15.906Z,94911.61
2018-04-11T04:57:44.294Z,94914.13
2018-04-11T05:00:13.582Z,94917.70
2018-04-11T05:02:41.992Z,94922.95
2018-04-11T05:05:11.009Z,94918.64
2018-04-11T05:07:39.372Z,94925.45
2018-04-11T05:10:07.748Z,94922.73
2018-04-11T05:12:36.206Z,94921.34
2018-04-11T05:15:04.854Z,94927.98
2018-04-11T05:17:33.233Z,94931.83
2018-04-11T05:20:02.291Z,94930.41
2018-04-11T05:22:30.613Z,94928.93
2018-04-11T05:24:59.077Z,94928.38
2018-04-11T05:27:27.501Z,94928.29
2018-04-11T05:29:55.939Z,94921.23
2018-04-11T05:32:24.254Z,94926.34
2018-04-11T05:34:52.602Z,94931.55
2018-04-11T05:37:20.998Z,94933.86
2018-04-11T05:39:49.358Z,94930.41
2018-04-11T05:42:17.681Z,94931.28
2018-04-11T05:44:46.137Z,94931.86
2018-04-11T05:47:14.518Z,94934.44
2018-04-11T05:49:42.849Z,94929.20
2018-04-11T05:52:11.213Z,94931.06
2018-04-11T05:54:39.541Z,94933.64
2018-04-11T05:57:07.936Z,94933.06
2018-04-11T05:59:36.343Z,94929.49
2018-04-11T06:02:04.681Z,94925.08
2018-04-11T06:04:33.005Z,94928.18
2018-04-11T06:07:01.344Z,94920.70
2018-04-11T06:09:29.721Z,94920.73
2018-04-11T06:11:58.063Z,94920.03
2018-04-11T06:14:26.479Z,94921.41
2018-04-11T06:16:54.846Z,94919.27
2018-04-11T06:19:23.144Z,94913.38
2018-04-11T06:21:51.493Z,94914.49
2018-04-11T06:24:19.911Z,94913.37
2018-04-11T06:26:48.236Z,94913.08
2018-04-11T06:29:16.568Z,94914.48
2018-04-11T06:31:44.944Z,94919.63
2018-04-11T06:34:13.258Z,94916.27
2018-04-11T06:36:41.611Z,94911.77
2018-04-11T06:39:10.097Z,94911.38
2018-04-11T06:41:38.451Z,94916.65
2018-04-11T06:44:06.828Z,94920.39
2018-04-11T06:46:35.231Z,94917.30
2018-04-11T06:49:03.565Z,94921.16
2018-04-11T06:51:31.889Z,94921.22
2018-04-11T06:54:00.329Z,94916.40
2018-04-11T06:56:28.701Z,94920.17
2018-04-11T06:58:57.087Z,94917.34
2018-04-11T07:01:25.460Z,94918.42
2018-04-11T07:03:53.801Z,94912.55
2018-04-11T07:06:22.127Z,94913.52
2018-04-11T07:08:50.492Z,94911.83
2018-04-11T07:11:18.874Z,94911.20
2018-04-11T07:13:47.250Z,94913.05
2018-04-11T07:16:15.561Z,94911.08
2018-04-11T07:18:43.897Z,94906.12
2018-04-11T07:21:12.321Z,94906.66
2018-04-11T07:23:40.681Z,94910.88
2018-04-11T07:26:09.051Z,94905.19
2018-04-11T07:28:37.392Z,94906.05
2018-04-11T07:31:05.764Z,94906.17
2018-04-11T07:33:34.080Z,94906.34
2018-04-11T07:36:02.444Z,94903.55
2018-04-11T07:38:30.762Z,94903.62
2018-04-11T07:40:59.222Z,94902.99
2018-04-11T07:43:27.555Z,94904.57
2018-04-11T07:45:55.903Z,94899.34
2018-04-11T07:48:24.286Z,94898.95
2018-04-11T07:50:52.658Z,94898.47
2018-04-11T07:53:20.953Z,94900.80
2018-04-11T07:55:49.287Z,94896.73
2018-04-11T07:58:17.664Z,94890.30
2018-04-11T08:00:46.069Z,94895.26
2018-04-11T08:03:14.451Z,94890.57
2018-04-11T08:05:42.731Z,94893.91
2018-04-11T08:08:11.067Z,94890.23
2018-04-11T08:10:39.478Z,94888.98
2018-04-11T08:13:07.820Z,94891.77
2018-04-11T08:15:36.139Z,94879.59
2018-04-11T08:18:04.629Z,94884.50
2018-04-11T08:20:32.930Z,94886.71
2018-04-11T08:23:01.370Z,94882.39
2018-04-11T08:25:29.689Z,94889.93
2018-04-11T08:27:58.077Z,94881.95
2018-04-11T08:30:26.401Z,94878.06
2018-04-11T08:32:54.733Z,94880.36
2018-04-11T08:35:23.069Z,94881.25
2018-04-11T08:37:51.402Z,94879.05
2018-04-11T08:40:19.730Z,94880.45
2018-04-11T08:42:48.157Z,94881.26
2018-04-11T08:45:16.470Z,94876.45
2018-04-11T08:47:44.846Z,94875.97
2018-04-11T08:50:13.180Z,94872.41
2018-04-11T08:52:41.516Z,94874.36
2018-04-11T08:55:09.900Z,94877.41
2018-04-11T08:57:38.264Z,94877.44
2018-04-11T09:00:06.596Z,94871.54
2018-04-11T09:02:34.976Z,94877.86
2018-04-11T09:05:03.352Z,94873.92
2018-04-11T09:07:31.727Z,94880.72
2018-04-11T09:10:00.069Z,94870.53
2018-04-11T09:12:28.377Z,94872.86
2018-04-11T09:14:56.803Z,94869.48
2018-04-11T09:17:25.133Z,94867.86
2018-04-11T09:19:53.523Z,94861.98
2018-04-11T09:22:21.845Z,94856.62
2018-04-11T09:24:51.149Z,94857.27
2018-04-11T09:27:19.467Z,94853.52
2018-04-11T09:29:47.845Z,94858.02
2018-04-11T09:32:16.161Z,94857.84
2018-04-11T09:34:44.512Z,94850.28
2018-04-11T09:37:12.828Z,94856.02
2018-04-11T09:39:41.272Z,94854.06
2018-04-11T09:42:09.656Z,94852.05
2018-04-11T09:44:38.000Z,94849.98
2018-04-11T09:47:06.332Z,94843.70
2018-04-11T09:49:34.672Z,94844.09
2018-04-11T09:52:02.986Z,94848.58
2018-04-11T09:54:31.330Z,94844.86
2018-04-11T09:56:59.674Z,94842.22
2018-04-11T09:59:27.957Z,94840.52
2018-04-11T10:01:56.312Z,94830.71
2018-04-11T10:04:24.652Z,94831.48
2018-04-11T10:06:53.060Z,94826.95
2018-04-11T10:09:21.327Z,94829.38
2018-04-11T10:11:49.662Z,94825.66
2018-04-11T10:14:18.093Z,94830.34
2018-04-11T10:16:46.425Z,94833.85
2018-04-11T10:19:14.728Z,94830.23
2018-04-11T10:21:43.096Z,94825.39
2018-04-11T10:24:11.412Z,94818.57
2018-04-11T10:26:39.750Z,94825.78
2018-04-11T10:29:08.117Z,94816.60
2018-04-11T10:31:36.537Z,94820.66
2018-04-11T10:34:04.910Z,94812.42
2018-04-11T10:36:33.234Z,94809.00
2018-04-11T10:39:01.555Z,94812.75
2018-04-11T10:41:29.898Z,94811.41
2018-04-11T10:43:58.273Z,94804.67
2018-04-11T10:46:26.753Z,94802.37
2018-04-11T10:48:55.197Z,94793.27
2018-04-11T10:51:23.489Z,94788.47
2018-04-11T10:53:51.824Z,94792.20
2018-04-11T10:56:20.146Z,94800.27
2018-04-11T10:58:48.544Z,94792.95
2018-04-11T11:01:16.868Z,94787.16
2018-04-11T11:03:45.248Z,94788.20
2018-04-11T11:06:13.584Z,94782.80
2018-04-11T11:08:41.965Z,94782.65
2018-04-11T11:11:10.280Z,94781.83
2018-04-11T11:13:38.618Z,94777.12
2018-04-11T11:16:06.929Z,94773.11
2018-04-11T11:18:36.173Z,94779.92
2018-04-11T11:21:04.485Z,94780.30
2018-04-11T11:23:32.843Z,94767.25
2018-04-11T11:26:01.141Z,94770.98
2018-04-11T11:28:29.481Z,94770.02
2018-04-11T11:30:57.875Z,94765.42
2018-04-11T11:33:27.153Z,94767.08
2018-04-11T11:35:55.475Z,94759.84
2018-04-11T11:38:23.795Z,94759.05
2018-04-11T11:40:52.221Z,94765.41
2018-04-11T11:43:20.635Z,94762.55
2018-04-11T11:45:49.007Z,94760.59
2018-04-11T11:48:17.323Z,94751.98
2018-04-11T11:50:45.677Z,94737.53
2018-04-11T11:53:14.000Z,94741.42
2018-04-11T11:55:42.398Z,94739.17
2018-04-11T11:58:10.710Z,94731.38
2018-04-11T12:00:39.029Z,94728.81
2018-04-11T12:03:07.415Z,94730.75
2018-04-11T12:05:35.791Z,94731.95
2018-04-11T12:08:04.216Z,94731.90
2018-04-11T12:10:32.541Z,94719.39
2018-04-11T12:13:00.855Z,94724.98
2018-04-11T12:15:29.196Z,94730.62
2018-04-11T12:17:57.492Z,94728.58
2018-04-11T12:20:25.833Z,94735.44
2018-04-11T12:22:54.228Z,94729.50
2018-04-11T12:25:22.580Z,94718.67
2018-04-11T12:27:50.903Z,94719.66
2018-04-11T12:30:19.241Z,94717.76
2018-04-11T12:32:47.638Z,94714.07
2018-04-11T12:35:16.064Z,94710.64
2018-04-11T12:37:44.364Z,94704.19
2018-04-11T12:40:12.778Z,94702.18
2018-04-11T12:42:41.124Z,94699.75
2018-04-11T12:45:09.427Z,94700.37
2018-04-11T12:47:37.804Z,94700.47
2018-04-11T12:50:06.197Z,94699.47
2018-04-11T12:52:34.570Z,94702.28
2018-04-11T12:55:02.869Z,94703.58
2018-04-11T12:57:31.197Z,94707.30
2018-04-11T12:59:59.506Z,94693.40
2018-04-11T13:02:27.921Z,94677.96
2018-04-11T13:04:56.258Z,94678.48
2018-04-11T13:07:24.636Z,94684.94
2018-04-11T13:09:53.009Z,94675.14
2018-04-11T13:12:21.345Z,94663.19
2018-04-11T13:14:49.649Z,94668.05
2018-04-11T13:17:18.048Z,94666.39
2018-04-11T13:19:46.448Z,94665.45
2018-04-11T13:22:14.800Z,94651.98
2018-04-11T13:24:43.204Z,94637.22
2018-04-11T13:27:11.535Z,94644.17
2018-04-11T13:29:39.952Z,94642.87
2018-04-11T13:32:08.293Z,94637.48
2018-04-11T13:34:36.613Z,94633.20
2018-04-11T13:37:04.927Z,94632.34
2018-04-11T13:39:33.266Z,94627.33
2018-04-11T13:42:01.569Z,94618.13
2018-04-11T13:44:29.915Z,94624.44
2018-04-11T13:46:58.321Z,94630.73
2018-04-11T13:49:26.650Z,94617.75
2018-04-11T13:51:55.043Z,94617.63
2018-04-11T13:54:23.388Z,94606.77
2018-04-11T13:56:51.708Z,94623.17
2018-04-11T13:59:20.032Z,94627.84
2018-04-11T14:01:48.356Z,94627.87
2018-04-11T14:04:16.694Z,94619.80
2018-04-11T14:06:45.012Z,94617.48
2018-04-11T14:09:13.424Z,94620.86
2018-04-11T14:11:41.718Z,94620.15
2018-04-11T14:14:10.137Z,94611.47
2018-04-11T14:16:38.449Z,94614.06
2018-04-11T14:19:06.897Z,94611.45
2018-04-11T14:21:35.257Z,94612.68
2018-04-11T14:24:03.753Z,94624.46
2018-04-11T14:26:32.058Z,94623.45
2018-04-11T14:29:00.374Z,94613.62
2018-04-11T14:31:28.817Z,94614.23
2018-04-11T14:33:57.084Z,94611.95
2018-04-11T14:36:25.443Z,94608.71
2018-04-11T14:38:53.856Z,94606.23
2018-04-11T14:41:22.202Z,94602.36
2018-04-11T14:43:50.519Z,94608.55
2018-04-11T14:46:18.932Z,94599.73
2018-04-11T14:48:47.242Z,94596.17
2018-04-11T14:51:15.605Z,94596.42
2018-04-11T14:53:43.917Z,94596.78
2018-04-11T14:56:12.373Z,94593.97
2018-04-11T14:58:40.685Z,94595.17
2018-04-11T15:01:09.157Z,94590.52
2018-04-11T15:03:37.493Z,94590.28
2018-04-11T15:06:05.868Z,94589.36
2018-04-11T15:08:34.253Z,94597.69
2018-04-11T15:11:02.630Z,94598.58
2018-04-11T15:13:30.962Z,94585.00
2018-04-11T15:15:59.328Z,94586.28
2018-04-11T15:18:27.632Z,94581.70
2018-04-11T15:20:56.056Z,94574.94
2018-04-11T15:23:24.379Z,94575.34
2018-04-11T15:25:52.735Z,94580.28
2018-04-11T15:28:21.113Z,94582.81
2018-04-11T15:30:49.414Z,94574.52
2018-04-11T15:33:17.750Z,94573.14
2018-04-11T15:35:46.073Z,94573.63
2018-04-11T15:38:14.483Z,94579.68
2018-04-11T15:40:42.873Z,94574.13
2018-04-11T15:43:11.201Z,94576.40
2018-04-11T15:45:39.650Z,94584.97
2018-04-11T15:48:07.988Z,94573.14
2018-04-11T15:50:36.380Z,94578.78
2018-04-11T15:53:04.700Z,94576.28
2018-04-11T15:55:33.034Z,94569.61
2018-04-11T15:58:01.381Z,94569.75
2018-04-11T16:00:29.726Z,94569.85
2018-04-11T16:02:58.246Z,94564.16
2018-04-11T16:05:26.559Z,94558.91
2018-04-11T16:07:54.886Z,94567.06
2018-04-11T16:10:23.243Z,94573.06
2018-04-11T16:12:51.549Z,94585.42
2018-04-11T16:15:19.998Z,94582.97
2018-04-11T16:17:48.288Z,94574.80
2018-04-11T16:20:16.666Z,94581.09
2018-04-11T16:22:44.987Z,94576.69
2018-04-11T16:25:13.372Z,94576.73
2018-04-11T16:27:41.691Z,94582.41
2018-04-11T16:30:10.028Z,94580.20
2018-04-11T16:32:38.387Z,94583.35
2018-04-11T16:35:06.721Z,94572.34
2018-04-11T16:37:35.092Z,94576.61
2018-04-11T16:40:03.417Z,94576.98
2018-04-11T16:42:31.739Z,94581.72
2018-04-11T16:45:00.082Z,94575.27
2018-04-11T16:47:28.397Z,94581.64
2018-04-11T16:49:56.735Z,94574.11
2018-04-11T16:52:25.051Z,94572.42
2018-04-11T16:54:53.435Z,94578.85
2018-04-11T16:57:21.736Z,94572.94
2018-04-11T16:59:50.087Z,94566.41
2018-04-11T17:02:18.467Z,94563.38
2018-04-11T17:04:46.870Z,94562.40
2018-04-11T17:07:15.326Z,94572.38
2018-04-11T17:09:43.636Z,94565.59
2018-04-11T17:12:11.977Z,94564.91
2018-04-11T17:14:40.291Z,94574.33
2018-04-11T17:17:08.634Z,94570.97
2018-04-11T17:19:36.942Z,94569.95
2018-04-11T17:25:19.098Z,94559.66
2018-04-11T17:27:59.490Z,94551.86
2018-04-11T17:33:35.373Z,94549.19
2018-04-11T17:36:03.681Z,94552.27
2018-04-11T17:38:32.080Z,94555.55
2018-04-11T17:41:00.427Z,94555.12
2018-04-11T17:43:28.834Z,94554.44
2018-04-11T17:45:57.221Z,94559.81
2018-04-11T17:48:25.643Z,94551.73
2018-04-11T17:50:53.980Z,94555.92
2018-04-11T17:53:22.349Z,94555.11
2018-04-11T17:55:50.748Z,94554.53
2018-04-11T17:58:19.102Z,94559.20
2018-04-11T18:00:47.438Z,94551.94
2018-04-11T18:03:15.806Z,94552.64
2018-04-11T18:05:44.149Z,94549.59
2018-04-11T18:08:12.530Z,94549.39
2018-04-11T18:10:40.901Z,94548.44
2018-04-11T18:13:09.277Z,94551.44
2018-04-11T18:15:37.610Z,94552.81
2018-04-11T18:18:06.031Z,94549.80
2018-04-11T18:20:34.388Z,94550.65
2018-04-11T18:23:02.726Z,94553.39
2018-04-11T18:25:31.082Z,94558.57
2018-04-11T18:27:59.484Z,94560.09
2018-04-11T18:30:27.922Z,94559.22
2018-04-11T18:32:56.248Z,94554.97
2018-04-11T18:35:24.603Z,94553.30
2018-04-11T18:37:52.955Z,94548.68
2018-04-11T18:40:21.328Z,94550.42
2018-04-11T18:42:49.715Z,94554.59
2018-04-11T18:45:18.132Z,94558.28
2018-04-11T18:47:46.458Z,94549.09
2018-04-11T18:50:14.818Z,94553.05
2018-04-11T18:52:43.266Z,94546.18
2018-04-11T18:55:11.602Z,94545.93
2018-04-11T18:57:39.990Z,94553.84
2018-04-11T19:00:08.461Z,94550.08
2018-04-11T19:02:36.813Z,94543.82
2018-04-11T19:05:05.141Z,94541.34
2018-04-11T19:07:33.536Z,94544.23
2018-04-11T19:10:01.859Z,94532.54
2018-04-11T19:12:30.209Z,94534.29
2018-04-11T19:14:58.589Z,94532.36
2018-04-11T19:17:26.961Z,94525.94
2018-04-11T19:19:55.285Z,94523.34
2018-04-11T19:22:23.656Z,94525.20
2018-04-11T19:24:51.984Z,94524.41
2018-04-11T19:27:20.351Z,94523.05
2018-04-11T19:29:48.674Z,94514.08
2018-04-11T19:32:17.036Z,94522.50
2018-04-11T19:34:45.448Z,94516.05
2018-04-11T19:37:13.848Z,94512.73
2018-04-11T19:39:42.178Z,94506.33
2018-04-11T19:42:10.541Z,94501.41
2018-04-11T19:44:38.884Z,94497.86
2018-04-11T19:47:07.235Z,94496.71
2018-04-11T19:49:35.561Z,94498.91
2018-04-11T19:52:03.925Z,94499.63
2018-04-11T19:54:32.253Z,94491.28
2018-04-11T19:57:00.932Z,94485.00
2018-04-11T19:59:29.269Z,94482.98
2018-04-11T20:01:57.601Z,94482.25
2018-04-11T20:04:25.960Z,94479.91
2018-04-11T20:06:54.284Z,94478.39
2018-04-11T20:09:22.631Z,94478.59
2018-04-11T20:11:51.000Z,94477.06
2018-04-11T20:14:19.347Z,94473.94
2018-04-11T20:16:47.690Z,94470.81
2018-04-11T20:19:16.099Z,94463.61
2018-04-11T20:21:44.479Z,94466.50
2018-04-11T20:24:12.917Z,94457.31
2018-04-11T20:26:41.315Z,94452.46
2018-04-11T20:29:09.679Z,94458.12
2018-04-11T20:31:38.005Z,94457.74
2018-04-11T20:34:06.523Z,94446.80
2018-04-11T20:36:34.910Z,94449.34
2018-04-11T20:39:03.256Z,94448.77
2018-04-11T20:41:31.670Z,94448.75
2018-04-11T20:44:00.025Z,94438.03
2018-04-11T20:46:28.360Z,94439.40
2018-04-11T20:48:56.802Z,94428.11
2018-04-11T20:51:25.190Z,94435.88
2018-04-11T20:53:53.603Z,94432.39
2018-04-11T20:56:21.936Z,94430.25
2018-04-11T20:58:50.278Z,94421.64
2018-04-11T21:01:18.629Z,94426.94
2018-04-11T21:03:46.945Z,94419.90
2018-04-11T21:06:15.355Z,94424.01
2018-04-11T21:08:43.766Z,94424.22
2018-04-11T21:11:12.177Z,94415.41
2018-04-11T21:13:40.498Z,94409.17
2018-04-11T21:16:08.868Z,94407.41
2018-04-11T21:18:37.246Z,94403.30
2018-04-11T21:21:05.588Z,94396.50
2018-04-11T21:23:33.935Z,94391.23
2018-04-11T21:26:02.296Z,94386.36
2018-04-11T21:28:30.630Z,94391.05
2018-04-11T21:30:59.004Z,94384.98
2018-04-11T21:33:27.365Z,94390.86
2018-04-11T21:35:55.739Z,94379.34
2018-04-11T21:38:24.066Z,94389.68
2018-04-11T21:40:52.409Z,94380.32
2018-04-11T21:43:20.797Z,94377.78
2018-04-11T21:45:49.161Z,94374.27
2018-04-11T21:48:17.515Z,94371.74
2018-04-11T21:50:45.845Z,94371.91
2018-04-11T21:53:14.197Z,94377.77
2018-04-11T21:55:42.521Z,94358.48
2018-04-11T21:58:10.884Z,94365.29
2018-04-11T22:00:39.228Z,94354.97
2018-04-11T22:03:07.636Z,94358.69
2018-04-11T22:05:35.979Z,94350.30
2018-04-11T22:08:04.340Z,94354.40
2018-04-11T22:10:32.806Z,94350.09
2018-04-11T22:13:01.146Z,94355.56
2018-04-11T22:15:29.545Z,94354.77
2018-04-11T22:17:57.961Z,94352.64
2018-04-11T22:20:26.283Z,94348.55
2018-04-11T22:22:54.627Z,94344.66
2018-04-11T22:25:22.958Z,94348.34
2018-04-11T22:27:51.312Z,94350.48
2018-04-11T22:30:19.638Z,94345.02
2018-04-11T22:32:48.081Z,94339.39
2018-04-11T22:35:16.405Z,94338.80
2018-04-11T22:37:44.835Z,94331.37
2018-04-11T22:40:13.201Z,94330.59
2018-04-11T22:42:41.663Z,94330.22
2018-04-11T22:45:09.949Z,94316.98
2018-04-11T22:47:38.278Z,94317.34
2018-04-11T22:50:06.624Z,94316.39
2018-04-11T22:52:35.051Z,94308.58
2018-04-11T22:55:03.397Z,94310.52
2018-04-11T22:57:31.712Z,94304.70
2018-04-11T23:00:00.065Z,94310.54
2018-04-11T23:02:28.386Z,94305.44
2018-04-11T23:04:56.729Z,94306.45
2018-04-11T23:07:25.046Z,94304.10
2018-04-11T23:09:53.857Z,94305.09
2018-04-11T23:12:22.191Z,94293.19
2018-04-11T23:14:50.533Z,94291.42
2018-04-11T23:17:18.847Z,94287.73
2018-04-11T23:19:47.165Z,94280.91
2018-04-11T23:22:16.434Z,94286.73
2018-04-11T23:24:44.841Z,94292.02
2018-04-11T23:27:13.157Z,94284.80
2018-04-11T23:29:41.592Z,94280.12
2018-04-11T23:32:09.973Z,94271.72
2018-04-11T23:34:38.365Z,94269.80
2018-04-11T23:37:06.701Z,94267.86
2018-04-11T23:39:35.030Z,94266.67
2018-04-11T23:42:03.345Z,94265.89
2018-04-11T23:44:31.678Z,94264.13
2018-04-11T23:47:00.009Z,94262.40
2018-04-11T23:49:28.313Z,94251.66
2018-04-11T23:51:56.644Z,94258.11
2018-04-11T23:54:24.960Z,94252.66
2018-04-11T23:56:53.284Z,94255.19
2018-04-11T23:59:21.626Z,94261.41
